createdAt,value
2022-11-20T00:01:38.235Z,100198.41
2022-11-20T00:04:06.265Z,100198.41
2022-11-20T00:06:34.384Z,100197.56
2022-11-20T00:09:03.675Z,100209.59
2022-11-20T00:11:33.528Z,100200.81
2022-11-20T00:14:03.433Z,100206.88
2022-11-20T00:16:34.698Z,100198.78
2022-11-20T00:19:05.051Z,100196.19
2022-11-20T00:21:33.470Z,100191.13
2022-11-20T00:24:01.429Z,100196.34
2022-11-20T00:26:31.081Z,100197.94
2022-11-20T00:29:01.423Z,100190.03
2022-11-20T00:31:29.994Z,100184.81
2022-11-20T00:33:59.563Z,100179.28
2022-11-20T00:36:33.936Z,100172.47
2022-11-20T00:39:02.214Z,100173.41
2022-11-20T00:41:31.492Z,100170.81
2022-11-20T00:44:00.098Z,100180.38
2022-11-20T00:46:29.444Z,100186.66
2022-11-20T00:48:59.316Z,100181.25
2022-11-20T00:51:29.002Z,100183.84
2022-11-20T00:53:58.798Z,100174.25
2022-11-20T00:56:26.927Z,100181.91
2022-11-20T00:58:57.345Z,100170.50
2022-11-20T01:01:27.363Z,100182.44
2022-11-20T01:03:57.141Z,100188.50
2022-11-20T01:06:29.166Z,100172.94
2022-11-20T01:08:59.060Z,100166.97
2022-11-20T01:11:29.127Z,100169.56
2022-11-20T01:13:58.802Z,100178.16
2022-11-20T01:16:29.585Z,100183.38
2022-11-20T01:19:00.533Z,100176.38
2022-11-20T01:21:33.725Z,100172.69
2022-11-20T01:24:02.885Z,100156.75
2022-11-20T01:26:35.191Z,100169.59
2022-11-20T01:29:04.502Z,100170.53
2022-11-20T01:31:33.864Z,100182.63
2022-11-20T01:34:07.273Z,100181.31
2022-11-20T01:36:39.395Z,100169.88
2022-11-20T01:39:09.728Z,100175.00
2022-11-20T01:41:55.067Z,100174.91
2022-11-20T01:44:44.464Z,100167.09
2022-11-20T01:47:18.431Z,100162.78
2022-11-20T01:49:52.939Z,100153.94
2022-11-20T01:52:25.017Z,100149.66
2022-11-20T01:54:57.453Z,100151.31
2022-11-20T01:57:27.949Z,100143.63
2022-11-20T01:59:59.561Z,100150.78
2022-11-20T02:02:30.111Z,100158.41
2022-11-20T02:05:06.861Z,100153.19
2022-11-20T02:07:35.397Z,100148.06
2022-11-20T02:10:05.634Z,100150.13
2022-11-20T02:12:51.158Z,100146.22
2022-11-20T02:15:19.115Z,100146.50
2022-11-20T02:17:48.664Z,100145.56
2022-11-20T02:20:16.998Z,100154.78
2022-11-20T02:22:52.866Z,100157.31
2022-11-20T02:25:23.790Z,100156.25
2022-11-20T02:27:53.065Z,100157.09
2022-11-20T02:30:21.237Z,100147.53
2022-11-20T02:32:49.239Z,100141.44
2022-11-20T02:35:42.500Z,100142.38
2022-11-20T02:38:10.865Z,100139.78
2022-11-20T02:40:40.490Z,100152.31
2022-11-20T02:43:11.519Z,100156.53
2022-11-20T02:45:42.362Z,100149.56
2022-11-20T02:48:10.513Z,100145.44
2022-11-20T02:50:40.800Z,100130.84
2022-11-20T02:53:09.636Z,100126.53
2022-11-20T02:55:38.172Z,100136.13
2022-11-20T02:58:08.187Z,100136.88
2022-11-20T03:00:36.488Z,100130.56
2022-11-20T03:03:07.222Z,100131.56
2022-11-20T03:05:35.080Z,100136.88
2022-11-20T03:08:03.171Z,100144.03
2022-11-20T03:10:33.269Z,100139.69
2022-11-20T03:13:02.453Z,100133.88
2022-11-20T03:15:33.495Z,100129.25
2022-11-20T03:18:01.394Z,100142.00
2022-11-20T03:20:29.305Z,100137.81
2022-11-20T03:22:57.348Z,100143.09
2022-11-20T03:25:25.660Z,100146.38
2022-11-20T03:27:53.775Z,100147.22
2022-11-20T03:30:23.218Z,100128.03
2022-11-20T03:32:56.551Z,100137.44
2022-11-20T03:35:24.564Z,100140.22
2022-11-20T03:37:54.522Z,100136.06
2022-11-20T03:40:22.680Z,100128.31
2022-11-20T03:42:50.891Z,100125.69
2022-11-20T03:45:21.190Z,100111.06
2022-11-20T03:47:49.222Z,100114.78
2022-11-20T03:50:18.739Z,100120.28
2022-11-20T03:52:46.679Z,100124.38
2022-11-20T03:55:15.098Z,100137.06
2022-11-20T03:57:43.113Z,100127.38
2022-11-20T04:00:12.284Z,100125.78
2022-11-20T04:02:40.628Z,100125.88
2022-11-20T04:05:08.926Z,100132.13
2022-11-20T04:07:38.372Z,100125.41
2022-11-20T04:10:07.479Z,100122.72
2022-11-20T04:12:35.632Z,100129.59
2022-11-20T04:15:03.482Z,100133.25
2022-11-20T04:17:32.228Z,100124.69
2022-11-20T04:20:00.284Z,100127.00
2022-11-20T04:22:28.533Z,100109.97
2022-11-20T04:24:57.983Z,100119.53
2022-11-20T04:27:26.286Z,100114.25
2022-11-20T04:29:54.123Z,100102.22
2022-11-20T04:32:22.192Z,100112.81
2022-11-20T04:34:50.141Z,100112.91
2022-11-20T04:37:18.120Z,100119.91
2022-11-20T04:39:48.402Z,100109.53
2022-11-20T04:42:33.067Z,100107.13
2022-11-20T04:45:01.089Z,100096.03
2022-11-20T04:47:31.067Z,100103.66
2022-11-20T04:49:59.321Z,100101.91
2022-11-20T04:52:27.291Z,100100.97
2022-11-20T04:54:55.540Z,100107.22
2022-11-20T04:57:24.787Z,100111.41
2022-11-20T04:59:52.723Z,100107.88
2022-11-20T05:02:20.873Z,100101.84
2022-11-20T05:04:49.216Z,100099.22
2022-11-20T05:07:17.263Z,100088.59
2022-11-20T05:09:45.348Z,100099.03
2022-11-20T05:12:13.320Z,100095.31
2022-11-20T05:14:42.542Z,100095.31
2022-11-20T05:17:12.383Z,100086.56
2022-11-20T05:19:42.731Z,100078.91
2022-11-20T05:22:10.783Z,100084.97
2022-11-20T05:24:38.643Z,100083.38
2022-11-20T05:27:07.185Z,100086.00
2022-11-20T05:29:35.287Z,100081.72
2022-11-20T05:32:06.487Z,100081.16
2022-11-20T05:34:34.476Z,100075.84
2022-11-20T05:37:05.342Z,100080.22
2022-11-20T05:39:33.695Z,100083.94
2022-11-20T05:42:21.511Z,100088.13
2022-11-20T05:44:49.575Z,100094.09
2022-11-20T05:47:19.119Z,100084.41
2022-11-20T05:49:47.205Z,100088.59
2022-11-20T05:52:15.381Z,100086.94
2022-11-20T05:54:43.568Z,100093.91
2022-11-20T05:57:14.179Z,100081.91
2022-11-20T05:59:42.163Z,100090.63
2022-11-20T06:02:10.061Z,100085.19
2022-11-20T06:04:42.590Z,100092.16
2022-11-20T06:07:10.729Z,100091.22
2022-11-20T06:09:38.679Z,100087.00
2022-11-20T06:12:07.838Z,100085.25
2022-11-20T06:14:36.114Z,100092.34
2022-11-20T06:17:04.245Z,100094.75
2022-11-20T06:19:34.088Z,100091.22
2022-11-20T06:22:06.226Z,100091.78
2022-11-20T06:24:34.115Z,100084.31
2022-11-20T06:27:02.152Z,100092.59
2022-11-20T06:29:33.926Z,100097.91
2022-11-20T06:32:02.303Z,100099.41
2022-11-20T06:34:32.710Z,100097.91
2022-11-20T06:37:01.056Z,100100.41
2022-11-20T06:39:33.463Z,100095.84
2022-11-20T06:42:01.551Z,100107.78
2022-11-20T06:44:29.401Z,100107.13
2022-11-20T06:46:57.386Z,100114.09
2022-11-20T06:49:26.342Z,100106.19
2022-11-20T06:51:54.570Z,100104.59
2022-11-20T06:54:22.493Z,100086.28
2022-11-20T06:56:52.046Z,100093.44
2022-11-20T06:59:20.288Z,100095.84
2022-11-20T07:01:49.087Z,100097.16
2022-11-20T07:04:17.683Z,100094.66
2022-11-20T07:06:51.026Z,100096.97
2022-11-20T07:09:19.994Z,100101.19
2022-11-20T07:11:47.887Z,100108.50
2022-11-20T07:14:17.459Z,100111.88
2022-11-20T07:16:45.415Z,100109.09
2022-11-20T07:19:13.826Z,100105.63
2022-11-20T07:21:41.709Z,100103.88
2022-11-20T07:24:10.165Z,100098.56
2022-11-20T07:26:38.395Z,100105.16
2022-11-20T07:29:06.729Z,100094.72
2022-11-20T07:31:38.577Z,100090.91
2022-11-20T07:34:06.998Z,100097.81
2022-11-20T07:36:35.534Z,100091.84
2022-11-20T07:39:05.779Z,100088.97
2022-11-20T07:41:33.988Z,100099.22
2022-11-20T07:44:02.045Z,100094.75
2022-11-20T07:46:31.772Z,100085.34
2022-11-20T07:49:00.953Z,100088.78
2022-11-20T07:51:31.514Z,100109.44
2022-11-20T07:53:59.872Z,100092.88
2022-11-20T07:56:28.178Z,100110.28
2022-11-20T07:58:56.299Z,100124.50
2022-11-20T08:01:24.751Z,100112.50
2022-11-20T08:03:52.745Z,100114.19
2022-11-20T08:06:21.999Z,100112.91
2022-11-20T08:08:50.190Z,100118.56
2022-11-20T08:11:35.390Z,100118.22
2022-11-20T08:14:15.367Z,100120.56
2022-11-20T08:16:45.857Z,100124.66
2022-11-20T08:19:15.033Z,100121.94
2022-11-20T08:21:45.807Z,100129.03
2022-11-20T08:24:14.487Z,100125.88
2022-11-20T08:26:42.835Z,100128.78
2022-11-20T08:29:10.850Z,100124.13
2022-11-20T08:31:39.246Z,100130.00
2022-11-20T08:34:09.469Z,100133.44
2022-11-20T08:36:38.324Z,100125.72
2022-11-20T08:39:07.880Z,100132.25
2022-11-20T08:41:37.707Z,100139.13
2022-11-20T08:44:07.875Z,100143.69
2022-11-20T08:46:38.637Z,100147.03
2022-11-20T08:49:07.188Z,100144.25
2022-11-20T08:51:35.187Z,100146.97
2022-11-20T08:54:03.911Z,100150.13
2022-11-20T08:56:34.113Z,100153.66
2022-11-20T08:59:23.032Z,100159.28
2022-11-20T09:01:50.996Z,100155.06
2022-11-20T09:04:18.894Z,100158.50
2022-11-20T09:06:52.145Z,100155.81
2022-11-20T09:09:21.162Z,100164.28
2022-11-20T09:11:51.983Z,100155.72
2022-11-20T09:14:22.260Z,100153.00
2022-11-20T09:16:51.927Z,100157.97
2022-11-20T09:19:40.647Z,100156.00
2022-11-20T09:22:09.175Z,100155.16
2022-11-20T09:24:37.972Z,100150.38
2022-11-20T09:27:11.456Z,100139.25
2022-11-20T09:29:40.549Z,100139.53
2022-11-20T09:32:08.809Z,100145.03
2022-11-20T09:34:36.889Z,100142.03
2022-11-20T09:37:07.832Z,100153.94
2022-11-20T09:39:40.109Z,100156.00
2022-11-20T09:42:43.354Z,100157.44
2022-11-20T09:45:23.091Z,100159.13
2022-11-20T09:48:04.386Z,100149.63
2022-11-20T09:50:38.893Z,100152.38
2022-11-20T09:53:15.992Z,100153.31
2022-11-20T09:55:44.477Z,100145.66
2022-11-20T09:58:27.805Z,100143.19
2022-11-20T10:01:07.660Z,100132.50
2022-11-20T10:03:43.543Z,100138.84
2022-11-20T10:06:17.652Z,100137.66
2022-11-20T10:08:51.608Z,100121.97
2022-11-20T10:11:31.651Z,100122.84
2022-11-20T10:14:14.980Z,100132.16
2022-11-20T10:16:55.947Z,100126.00
2022-11-20T10:19:40.597Z,100120.75
2022-11-20T10:22:18.306Z,100108.63
2022-11-20T10:24:53.138Z,100120.13
2022-11-20T10:27:42.488Z,100115.63
2022-11-20T10:30:14.576Z,100115.22
2022-11-20T10:32:45.600Z,100113.41
2022-11-20T10:35:23.048Z,100115.63
2022-11-20T10:37:56.793Z,100107.38
2022-11-20T10:40:34.349Z,100104.84
2022-11-20T10:43:04.816Z,100106.09
2022-11-20T10:45:42.339Z,100109.75
2022-11-20T10:48:16.899Z,100107.38
2022-11-20T10:50:56.970Z,100110.88
2022-11-20T10:53:44.891Z,100108.19
2022-11-20T10:56:21.038Z,100110.78
2022-11-20T10:59:12.953Z,100108.28
2022-11-20T11:01:45.876Z,100100.44
2022-11-20T11:04:32.424Z,100107.47
2022-11-20T11:07:09.511Z,100107.47
2022-11-20T11:09:44.938Z,100102.00
2022-11-20T11:12:13.834Z,100095.72
2022-11-20T11:14:50.522Z,100093.84
2022-11-20T11:17:29.453Z,100090.59
2022-11-20T11:20:03.487Z,100077.75
2022-11-20T11:22:33.474Z,100084.53
2022-11-20T11:25:02.291Z,100079.31
2022-11-20T11:27:30.651Z,100070.00
2022-11-20T11:30:20.821Z,100074.50
2022-11-20T11:32:50.628Z,100077.84
2022-11-20T11:35:27.143Z,100067.38
2022-11-20T11:38:06.972Z,100073.44
2022-11-20T11:40:38.146Z,100074.28
2022-11-20T11:43:33.932Z,100069.78
2022-11-20T11:46:29.705Z,100068.94
2022-11-20T11:49:01.774Z,100064.66
2022-11-20T11:51:37.329Z,100062.75
2022-11-20T11:54:15.717Z,100057.13
2022-11-20T11:56:47.601Z,100049.19
2022-11-20T11:59:25.799Z,100050.94
2022-11-20T12:01:59.793Z,100051.88
2022-11-20T12:04:44.314Z,100055.44
2022-11-20T12:07:45.487Z,100051.25
2022-11-20T12:10:22.769Z,100044.13
2022-11-20T12:12:56.611Z,100045.72
2022-11-20T12:15:30.935Z,100043.84
2022-11-20T12:18:01.703Z,100046.34
2022-11-20T12:20:37.524Z,100046.03
2022-11-20T12:23:12.083Z,100041.22
2022-11-20T12:25:45.924Z,100046.44
2022-11-20T12:28:37.530Z,100047.09
2022-11-20T12:31:25.656Z,100042.78
2022-11-20T12:34:08.574Z,100040.38
2022-11-20T12:36:46.345Z,100033.47
2022-11-20T12:39:31.183Z,100028.44
2022-11-20T12:42:33.901Z,100025.53
2022-11-20T12:45:30.564Z,100023.41
2022-11-20T12:48:14.894Z,100030.94
2022-11-20T12:51:13.869Z,100029.41
2022-11-20T12:53:58.057Z,100029.81
2022-11-20T12:56:42.106Z,100042.78
2022-11-20T12:59:36.175Z,100036.31
2022-11-20T13:02:20.904Z,100031.16
2022-11-20T13:05:12.657Z,100036.00
2022-11-20T13:07:43.062Z,100021.75
2022-11-20T13:10:20.902Z,100020.94
2022-11-20T13:12:58.809Z,100019.84
2022-11-20T13:15:41.186Z,100020.28
2022-11-20T13:18:12.565Z,100006.78
2022-11-20T13:20:45.447Z,100010.13
2022-11-20T13:23:13.923Z,100004.66
2022-11-20T13:25:47.871Z,100011.88
2022-11-20T13:28:31.093Z,100007.88
2022-11-20T13:31:00.576Z,100000.91
2022-11-20T13:33:33.817Z,99994.09
2022-11-20T13:36:04.958Z,99993.25
2022-11-20T13:38:46.729Z,99987.09
2022-11-20T13:41:32.545Z,99983.00
2022-11-20T13:44:09.120Z,99979.22
2022-11-20T13:46:39.719Z,99972.91
2022-11-20T13:49:17.979Z,99964.44
2022-11-20T13:51:51.458Z,99959.53
2022-11-20T13:54:42.247Z,99953.88
2022-11-20T13:57:28.189Z,99950.72
2022-11-20T14:00:00.176Z,99948.84
2022-11-20T14:02:30.967Z,99949.78
2022-11-20T14:05:03.975Z,99958.25
2022-11-20T14:07:38.840Z,99953.97
2022-11-20T14:10:08.178Z,99944.44
2022-11-20T14:12:37.918Z,99934.28
2022-11-20T14:15:06.854Z,99946.66
2022-11-20T14:17:37.460Z,99947.59
2022-11-20T14:20:09.340Z,99952.81
2022-11-20T14:22:37.761Z,99942.59
2022-11-20T14:25:09.251Z,99946.97
2022-11-20T14:27:43.685Z,99944.47
2022-11-20T14:30:17.849Z,99950.75
2022-11-20T14:32:49.105Z,99952.44
2022-11-20T14:35:23.635Z,99943.75
2022-11-20T14:37:52.868Z,99937.66
2022-11-20T14:40:31.635Z,99934.22
2022-11-20T14:43:01.451Z,99934.13
2022-11-20T14:45:30.133Z,99921.03
2022-11-20T14:48:00.320Z,99917.47
2022-11-20T14:50:31.545Z,99917.34
2022-11-20T14:53:01.577Z,99918.09
2022-11-20T14:55:32.938Z,99919.53
2022-11-20T14:58:04.777Z,99916.91
2022-11-20T15:00:39.012Z,99917.75
2022-11-20T15:03:19.190Z,99915.34
2022-11-20T15:05:53.564Z,99905.19
2022-11-20T15:08:23.223Z,99911.19
2022-11-20T15:10:53.204Z,99906.88
2022-11-20T15:13:33.023Z,99897.34
2022-11-20T15:16:03.916Z,99894.88
2022-11-20T15:18:35.375Z,99887.94
2022-11-20T15:21:12.340Z,99894.25
2022-11-20T15:23:43.297Z,99892.06
2022-11-20T15:26:18.405Z,99884.31
2022-11-20T15:28:51.100Z,99882.97
2022-11-20T15:31:21.988Z,99876.09
2022-11-20T15:33:50.848Z,99871.28
2022-11-20T15:36:19.771Z,99877.47
2022-11-20T15:38:47.770Z,99870.44
2022-11-20T15:41:15.822Z,99865.53
2022-11-20T15:43:46.753Z,99867.44
2022-11-20T15:46:18.268Z,99863.59
2022-11-20T15:48:53.344Z,99855.03
2022-11-20T15:51:28.790Z,99861.16
2022-11-20T15:53:57.564Z,99862.34
2022-11-20T15:56:25.813Z,99858.16
2022-11-20T15:58:54.036Z,99857.44
2022-11-20T16:01:24.396Z,99860.25
2022-11-20T16:03:52.826Z,99853.25
2022-11-20T16:06:20.726Z,99848.97
2022-11-20T16:08:48.695Z,99854.06
2022-11-20T16:11:20.028Z,99849.09
2022-11-20T16:14:05.705Z,99843.94
2022-11-20T16:16:36.568Z,99837.91
2022-11-20T16:19:04.970Z,99828.50
2022-11-20T16:21:34.070Z,99829.31
2022-11-20T16:24:03.620Z,99828.25
2022-11-20T16:26:31.896Z,99832.53
2022-11-20T16:29:01.090Z,99823.78
2022-11-20T16:31:32.197Z,99827.94
2022-11-20T16:34:05.897Z,99826.16
2022-11-20T16:36:40.931Z,99813.81
2022-11-20T16:39:09.106Z,99809.31
2022-11-20T16:41:37.462Z,99805.53
2022-11-20T16:44:10.684Z,99797.47
2022-11-20T16:46:40.609Z,99797.69
2022-11-20T16:49:14.328Z,99795.22
2022-11-20T16:51:42.764Z,99791.88
2022-11-20T16:54:15.038Z,99787.19
2022-11-20T16:56:48.041Z,99777.97
2022-11-20T16:59:16.022Z,99781.44
2022-11-20T17:01:44.379Z,99778.59
2022-11-20T17:04:14.079Z,99775.97
2022-11-20T17:06:44.424Z,99766.56
2022-11-20T17:09:13.889Z,99763.94
2022-11-20T17:11:42.068Z,99760.63
2022-11-20T17:14:13.019Z,99764.56
2022-11-20T17:16:43.079Z,99757.47
2022-11-20T17:19:11.248Z,99761.75
2022-11-20T17:21:44.473Z,99768.88
2022-11-20T17:24:14.202Z,99765.41
2022-11-20T17:26:44.231Z,99777.00
2022-11-20T17:29:13.735Z,99779.38
2022-11-20T17:31:42.939Z,99778.44
2022-11-20T17:34:13.903Z,99770.59
2022-11-20T17:36:45.689Z,99772.03
2022-11-20T17:39:16.915Z,99753.50
2022-11-20T17:41:45.724Z,99746.41
2022-11-20T17:44:14.213Z,99744.72
2022-11-20T17:46:44.914Z,99751.84
2022-11-20T17:49:20.047Z,99740.66
2022-11-20T17:51:50.877Z,99735.19
2022-11-20T17:54:20.664Z,99730.56
2022-11-20T17:57:06.447Z,99733.19
2022-11-20T17:59:34.460Z,99732.38
2022-11-20T18:02:03.964Z,99732.38
2022-11-20T18:04:32.467Z,99724.09
2022-11-20T18:07:03.279Z,99721.22
2022-11-20T18:09:35.898Z,99711.47
2022-11-20T18:12:04.235Z,99707.19
2022-11-20T18:14:34.946Z,99705.88
2022-11-20T18:17:04.769Z,99704.22
2022-11-20T18:19:37.604Z,99706.38
2022-11-20T18:22:09.299Z,99703.75
2022-11-20T18:24:39.439Z,99703.16
2022-11-20T18:27:12.619Z,99702.31
2022-11-20T18:29:40.509Z,99702.81
2022-11-20T18:32:08.743Z,99697.56
2022-11-20T18:34:38.026Z,99688.28
2022-11-20T18:37:06.328Z,99673.09
2022-11-20T18:39:34.564Z,99673.69
2022-11-20T18:42:21.890Z,99671.19
2022-11-20T18:44:53.875Z,99662.16
2022-11-20T18:47:24.431Z,99663.94
2022-11-20T18:49:57.795Z,99661.81
2022-11-20T18:52:33.813Z,99653.97
2022-11-20T18:55:06.335Z,99648.63
2022-11-20T18:57:36.195Z,99639.81
2022-11-20T19:00:09.438Z,99635.78
2022-11-20T19:02:42.492Z,99629.84
2022-11-20T19:05:11.750Z,99631.03
2022-11-20T19:07:40.418Z,99629.59
2022-11-20T19:10:10.123Z,99627.94
2022-11-20T19:12:40.172Z,99624.59
2022-11-20T19:15:11.381Z,99618.19
2022-11-20T19:17:39.823Z,99611.75
2022-11-20T19:20:08.680Z,99614.50
2022-11-20T19:22:39.570Z,99615.69
2022-11-20T19:25:09.618Z,99611.06
2022-11-20T19:27:40.308Z,99617.84
2022-11-20T19:30:09.467Z,99618.44
2022-11-20T19:32:39.809Z,99614.63
2022-11-20T19:35:08.428Z,99604.03
2022-11-20T19:37:36.698Z,99603.44
2022-11-20T19:40:06.585Z,99601.66
2022-11-20T19:42:34.667Z,99605.69
2022-11-20T19:45:05.539Z,99599.84
2022-11-20T19:48:06.190Z,99602.63
2022-11-20T19:50:21.667Z,99601.41
2022-11-20T19:52:57.231Z,99592.97
2022-11-20T19:55:26.733Z,99596.31
2022-11-20T19:57:54.723Z,99584.75
2022-11-20T20:00:29.666Z,99593.09
2022-11-20T20:03:00.796Z,99591.91
2022-11-20T20:05:29.044Z,99576.69
2022-11-20T20:07:57.118Z,99575.34
2022-11-20T20:10:25.046Z,99576.88
2022-11-20T20:12:55.019Z,99576.06
2022-11-20T20:15:24.470Z,99565.25
2022-11-20T20:17:52.768Z,99559.28
2022-11-20T20:20:21.215Z,99567.88
2022-11-20T20:22:49.721Z,99555.13
2022-11-20T20:25:18.035Z,99554.03
2022-11-20T20:27:45.921Z,99556.06
2022-11-20T20:30:14.660Z,99557.72
2022-11-20T20:32:44.087Z,99551.09
2022-11-20T20:35:12.377Z,99547.16
2022-11-20T20:37:40.313Z,99544.75
2022-11-20T20:40:14.921Z,99540.59
2022-11-20T20:42:43.302Z,99535.00
2022-11-20T20:45:12.215Z,99534.06
2022-11-20T20:47:41.422Z,99536.19
2022-11-20T20:50:13.088Z,99538.13
2022-11-20T20:52:41.711Z,99529.31
2022-11-20T20:55:11.092Z,99539.53
2022-11-20T20:57:39.362Z,99532.63
2022-11-20T21:00:10.214Z,99526.44
2022-11-20T21:02:38.380Z,99528.34
2022-11-20T21:05:08.143Z,99532.88
2022-11-20T21:07:58.284Z,99538.66
2022-11-20T21:10:26.264Z,99534.28
2022-11-20T21:12:54.615Z,99533.69
2022-11-20T21:15:24.847Z,99532.50
2022-11-20T21:17:53.185Z,99533.59
2022-11-20T21:20:39.149Z,99535.00
2022-11-20T21:23:11.571Z,99530.47
2022-11-20T21:25:40.627Z,99518.31
2022-11-20T21:28:13.160Z,99523.69
2022-11-20T21:30:44.941Z,99515.34
2022-11-20T21:33:15.858Z,99518.47
2022-11-20T21:35:44.966Z,99528.78
2022-11-20T21:38:17.180Z,99532.63
2022-11-20T21:40:45.623Z,99533.66
2022-11-20T21:43:13.820Z,99517.59
2022-11-20T21:45:42.464Z,99518.31
2022-11-20T21:48:10.698Z,99519.63
2022-11-20T21:50:38.682Z,99515.25
2022-11-20T21:53:07.131Z,99518.47
2022-11-20T21:55:38.873Z,99509.16
2022-11-20T21:58:07.237Z,99513.81
2022-11-20T22:00:35.230Z,99517.28
2022-11-20T22:03:04.795Z,99505.97
2022-11-20T22:05:33.206Z,99511.19
2022-11-20T22:08:01.471Z,99503.72
2022-11-20T22:10:29.527Z,99497.19
2022-11-20T22:13:19.269Z,99503.97
2022-11-20T22:16:00.469Z,99497.41
2022-11-20T22:18:29.110Z,99485.28
2022-11-20T22:20:57.034Z,99490.63
2022-11-20T22:23:25.091Z,99500.88
2022-11-20T22:25:53.226Z,99489.78
2022-11-20T22:28:22.573Z,99478.72
2022-11-20T22:30:50.443Z,99486.44
2022-11-20T22:33:18.469Z,99484.53
2022-11-20T22:35:48.747Z,99481.91
2022-11-20T22:38:18.035Z,99491.91
2022-11-20T22:40:46.795Z,99490.72
2022-11-20T22:43:18.011Z,99501.56
2022-11-20T22:45:52.310Z,99495.38
2022-11-20T22:48:22.106Z,99493.22
2022-11-20T22:50:49.997Z,99477.75
2022-11-20T22:53:17.862Z,99485.22
2022-11-20T22:55:50.142Z,99490.34
2022-11-20T22:58:18.123Z,99490.34
2022-11-20T23:00:45.951Z,99488.81
2022-11-20T23:03:17.769Z,99491.31
2022-11-20T23:05:46.181Z,99491.31
2022-11-20T23:08:14.161Z,99484.06
2022-11-20T23:10:44.257Z,99478.81
2022-11-20T23:13:12.204Z,99484.31
2022-11-20T23:15:40.473Z,99482.72
2022-11-20T23:18:08.517Z,99484.84
2022-11-20T23:20:38.282Z,99484.84
2022-11-20T23:23:06.518Z,99483.06
2022-11-20T23:25:34.476Z,99491.53
2022-11-20T23:28:03.578Z,99485.47
2022-11-20T23:30:31.495Z,99505.91
2022-11-20T23:32:59.641Z,99507.13
2022-11-20T23:35:27.602Z,99509.75
2022-11-20T23:37:58.071Z,99509.25
2022-11-20T23:40:26.111Z,99503.19
2022-11-20T23:43:11.593Z,99504.25
2022-11-20T23:45:42.355Z,99516.25
2022-11-20T23:48:10.439Z,99518.28
2022-11-20T23:50:38.761Z,99516.50
2022-11-20T23:53:08.645Z,99507.22
2022-11-20T23:55:44.881Z,99508.19
2022-11-20T23:58:14.480Z,99500.69
